sensor_id;sensor_type;location;lat;lon;timestamp;temperature;humidity
78463;SHT31;67756;51.982;5.648;2023-08-21T00:01:29;25.1;54.5
78463;SHT31;67756;51.982;5.648;2023-08-21T00:03:58;25.0;54.8
78463;SHT31;67756;51.982;5.648;2023-08-21T00:06:26;25.0;54.8
78463;SHT31;67756;51.982;5.648;2023-08-21T00:08:55;25.0;55.2
78463;SHT31;67756;51.982;5.648;2023-08-21T00:11:23;24.9;55.4
78463;SHT31;67756;51.982;5.648;2023-08-21T00:13:52;24.9;55.7
78463;SHT31;67756;51.982;5.648;2023-08-21T00:16:20;24.9;55.8
78463;SHT31;67756;51.982;5.648;2023-08-21T00:18:49;24.8;55.8
78463;SHT31;67756;51.982;5.648;2023-08-21T00:21:18;24.8;55.8
78463;SHT31;67756;51.982;5.648;2023-08-21T00:23:47;24.7;55.7
78463;SHT31;67756;51.982;5.648;2023-08-21T00:26:15;24.7;55.5
78463;SHT31;67756;51.982;5.648;2023-08-21T00:28:44;24.6;55.8
78463;SHT31;67756;51.982;5.648;2023-08-21T00:31:13;24.6;56.1
78463;SHT31;67756;51.982;5.648;2023-08-21T00:33:41;24.6;56.2
78463;SHT31;67756;51.982;5.648;2023-08-21T00:36:10;24.5;56.4
78463;SHT31;67756;51.982;5.648;2023-08-21T00:38:38;24.5;56.3
78463;SHT31;67756;51.982;5.648;2023-08-21T00:41:07;24.5;56.7
78463;SHT31;67756;51.982;5.648;2023-08-21T00:43:35;24.5;56.5
78463;SHT31;67756;51.982;5.648;2023-08-21T00:46:04;24.4;57.1
78463;SHT31;67756;51.982;5.648;2023-08-21T00:48:34;24.4;57.0
78463;SHT31;67756;51.982;5.648;2023-08-21T00:51:03;24.4;56.9
78463;SHT31;67756;51.982;5.648;2023-08-21T00:53:34;24.3;57.2
78463;SHT31;67756;51.982;5.648;2023-08-21T00:56:03;24.3;57.4
78463;SHT31;67756;51.982;5.648;2023-08-21T00:58:34;24.2;57.3
78463;SHT31;67756;51.982;5.648;2023-08-21T01:01:02;24.2;57.5
78463;SHT31;67756;51.982;5.648;2023-08-21T01:03:32;24.2;57.7
78463;SHT31;67756;51.982;5.648;2023-08-21T01:06:01;24.1;58.1
78463;SHT31;67756;51.982;5.648;2023-08-21T01:08:40;24.1;57.8
78463;SHT31;67756;51.982;5.648;2023-08-21T01:11:14;24.0;58.0
78463;SHT31;67756;51.982;5.648;2023-08-21T01:13:54;24.0;58.0
78463;SHT31;67756;51.982;5.648;2023-08-21T01:16:24;24.0;58.4
78463;SHT31;67756;51.982;5.648;2023-08-21T01:18:55;23.9;58.8
78463;SHT31;67756;51.982;5.648;2023-08-21T01:21:25;23.9;58.7
78463;SHT31;67756;51.982;5.648;2023-08-21T01:23:55;23.9;58.7
78463;SHT31;67756;51.982;5.648;2023-08-21T01:26:23;23.9;58.6
78463;SHT31;67756;51.982;5.648;2023-08-21T01:28:54;23.9;58.4
78463;SHT31;67756;51.982;5.648;2023-08-21T01:31:33;24.0;58.0
78463;SHT31;67756;51.982;5.648;2023-08-21T01:34:10;24.0;57.8
78463;SHT31;67756;51.982;5.648;2023-08-21T01:36:43;24.1;57.6
78463;SHT31;67756;51.982;5.648;2023-08-21T01:39:12;24.1;57.4
78463;SHT31;67756;51.982;5.648;2023-08-21T01:41:43;24.2;57.2
78463;SHT31;67756;51.982;5.648;2023-08-21T01:44:11;24.2;57.2
78463;SHT31;67756;51.982;5.648;2023-08-21T01:46:40;24.1;57.6
78463;SHT31;67756;51.982;5.648;2023-08-21T01:49:08;24.1;57.5
78463;SHT31;67756;51.982;5.648;2023-08-21T01:51:37;24.0;57.7
78463;SHT31;67756;51.982;5.648;2023-08-21T01:54:05;23.9;58.0
78463;SHT31;67756;51.982;5.648;2023-08-21T01:56:36;23.9;57.8
78463;SHT31;67756;51.982;5.648;2023-08-21T01:59:05;23.8;58.4
78463;SHT31;67756;51.982;5.648;2023-08-21T02:01:34;23.7;58.7
78463;SHT31;67756;51.982;5.648;2023-08-21T02:04:02;23.6;59.1
78463;SHT31;67756;51.982;5.648;2023-08-21T02:06:31;23.6;59.6
78463;SHT31;67756;51.982;5.648;2023-08-21T02:08:59;23.5;59.5
78463;SHT31;67756;51.982;5.648;2023-08-21T02:11:28;23.5;59.4
78463;SHT31;67756;51.982;5.648;2023-08-21T02:13:56;23.4;59.6
78463;SHT31;67756;51.982;5.648;2023-08-21T02:16:27;23.3;59.9
78463;SHT31;67756;51.982;5.648;2023-08-21T02:18:56;23.3;60.2
78463;SHT31;67756;51.982;5.648;2023-08-21T02:21:26;23.3;59.9
78463;SHT31;67756;51.982;5.648;2023-08-21T02:23:55;23.2;59.9
78463;SHT31;67756;51.982;5.648;2023-08-21T02:26:23;23.2;60.7
78463;SHT31;67756;51.982;5.648;2023-08-21T02:28:52;23.2;61.0
78463;SHT31;67756;51.982;5.648;2023-08-21T02:31:20;23.2;61.4
78463;SHT31;67756;51.982;5.648;2023-08-21T02:33:49;23.1;61.4
78463;SHT31;67756;51.982;5.648;2023-08-21T02:36:18;23.1;61.2
78463;SHT31;67756;51.982;5.648;2023-08-21T02:38:46;23.1;61.4
78463;SHT31;67756;51.982;5.648;2023-08-21T02:41:16;23.1;61.3
78463;SHT31;67756;51.982;5.648;2023-08-21T02:43:45;23.1;61.3
78463;SHT31;67756;51.982;5.648;2023-08-21T02:46:14;23.1;61.5
78463;SHT31;67756;51.982;5.648;2023-08-21T02:48:43;23.0;61.7
78463;SHT31;67756;51.982;5.648;2023-08-21T02:51:12;23.0;61.8
78463;SHT31;67756;51.982;5.648;2023-08-21T02:53:41;23.0;61.7
78463;SHT31;67756;51.982;5.648;2023-08-21T02:56:09;23.0;61.4
78463;SHT31;67756;51.982;5.648;2023-08-21T02:58:38;23.0;61.5
78463;SHT31;67756;51.982;5.648;2023-08-21T03:01:06;23.0;61.7
78463;SHT31;67756;51.982;5.648;2023-08-21T03:03:35;23.0;61.3
78463;SHT31;67756;51.982;5.648;2023-08-21T03:06:04;23.0;61.1
78463;SHT31;67756;51.982;5.648;2023-08-21T03:08:32;23.0;61.2
78463;SHT31;67756;51.982;5.648;2023-08-21T03:11:01;23.0;61.3
78463;SHT31;67756;51.982;5.648;2023-08-21T03:13:30;23.0;61.1
78463;SHT31;67756;51.982;5.648;2023-08-21T03:15:58;23.0;61.5
78463;SHT31;67756;51.982;5.648;2023-08-21T03:18:30;23.0;61.5
78463;SHT31;67756;51.982;5.648;2023-08-21T03:20:59;23.0;61.6
78463;SHT31;67756;51.982;5.648;2023-08-21T03:23:30;23.0;61.7
78463;SHT31;67756;51.982;5.648;2023-08-21T03:25:58;23.0;62.0
78463;SHT31;67756;51.982;5.648;2023-08-21T03:28:26;23.0;62.5
78463;SHT31;67756;51.982;5.648;2023-08-21T03:30:55;23.0;62.2
78463;SHT31;67756;51.982;5.648;2023-08-21T03:33:23;23.0;62.2
78463;SHT31;67756;51.982;5.648;2023-08-21T03:35:55;23.0;61.6
78463;SHT31;67756;51.982;5.648;2023-08-21T03:38:23;23.0;61.7
78463;SHT31;67756;51.982;5.648;2023-08-21T03:40:52;23.0;61.8
78463;SHT31;67756;51.982;5.648;2023-08-21T03:43:20;23.0;61.8
78463;SHT31;67756;51.982;5.648;2023-08-21T03:45:49;23.0;61.9
78463;SHT31;67756;51.982;5.648;2023-08-21T03:48:20;23.0;61.6
78463;SHT31;67756;51.982;5.648;2023-08-21T03:50:49;23.0;61.5
78463;SHT31;67756;51.982;5.648;2023-08-21T03:53:18;23.0;61.4
78463;SHT31;67756;51.982;5.648;2023-08-21T03:55:46;22.9;61.3
78463;SHT31;67756;51.982;5.648;2023-08-21T03:58:17;22.9;61.6
78463;SHT31;67756;51.982;5.648;2023-08-21T04:00:46;22.9;61.3
78463;SHT31;67756;51.982;5.648;2023-08-21T04:03:14;22.8;61.7
78463;SHT31;67756;51.982;5.648;2023-08-21T04:05:43;22.8;61.8
78463;SHT31;67756;51.982;5.648;2023-08-21T04:08:13;22.8;62.0
78463;SHT31;67756;51.982;5.648;2023-08-21T04:10:42;22.7;62.2
78463;SHT31;67756;51.982;5.648;2023-08-21T04:13:10;22.7;62.3
78463;SHT31;67756;51.982;5.648;2023-08-21T04:15:39;22.7;62.3
78463;SHT31;67756;51.982;5.648;2023-08-21T04:18:12;22.7;62.0
78463;SHT31;67756;51.982;5.648;2023-08-21T04:20:43;22.7;62.1
78463;SHT31;67756;51.982;5.648;2023-08-21T04:23:11;22.7;62.6
78463;SHT31;67756;51.982;5.648;2023-08-21T04:25:40;22.7;62.5
78463;SHT31;67756;51.982;5.648;2023-08-21T04:28:09;22.6;62.5
78463;SHT31;67756;51.982;5.648;2023-08-21T04:30:41;22.6;62.5
78463;SHT31;67756;51.982;5.648;2023-08-21T04:33:10;22.6;62.4
78463;SHT31;67756;51.982;5.648;2023-08-21T04:35:39;22.6;62.4
78463;SHT31;67756;51.982;5.648;2023-08-21T04:38:08;22.5;62.3
78463;SHT31;67756;51.982;5.648;2023-08-21T04:40:36;22.5;62.6
78463;SHT31;67756;51.982;5.648;2023-08-21T04:43:05;22.5;63.0
78463;SHT31;67756;51.982;5.648;2023-08-21T04:45:34;22.5;63.2
78463;SHT31;67756;51.982;5.648;2023-08-21T04:48:04;22.4;63.6
78463;SHT31;67756;51.982;5.648;2023-08-21T04:50:33;22.4;63.8
78463;SHT31;67756;51.982;5.648;2023-08-21T04:53:01;22.4;63.6
78463;SHT31;67756;51.982;5.648;2023-08-21T04:55:30;22.4;63.8
78463;SHT31;67756;51.982;5.648;2023-08-21T04:57:58;22.4;63.7
78463;SHT31;67756;51.982;5.648;2023-08-21T05:00:27;22.4;63.7
78463;SHT31;67756;51.982;5.648;2023-08-21T05:02:55;22.4;64.1
78463;SHT31;67756;51.982;5.648;2023-08-21T05:05:24;22.4;64.1
78463;SHT31;67756;51.982;5.648;2023-08-21T05:07:54;22.4;64.1
78463;SHT31;67756;51.982;5.648;2023-08-21T05:10:22;22.4;64.1
78463;SHT31;67756;51.982;5.648;2023-08-21T05:12:51;22.4;63.5
78463;SHT31;67756;51.982;5.648;2023-08-21T05:15:20;22.4;63.4
78463;SHT31;67756;51.982;5.648;2023-08-21T05:17:48;22.3;63.7
78463;SHT31;67756;51.982;5.648;2023-08-21T05:20:17;22.3;63.8
78463;SHT31;67756;51.982;5.648;2023-08-21T05:22:45;22.3;64.0
78463;SHT31;67756;51.982;5.648;2023-08-21T05:25:14;22.3;64.2
78463;SHT31;67756;51.982;5.648;2023-08-21T05:27:43;22.3;64.6
78463;SHT31;67756;51.982;5.648;2023-08-21T05:30:14;22.3;64.3
78463;SHT31;67756;51.982;5.648;2023-08-21T05:32:42;22.3;64.6
78463;SHT31;67756;51.982;5.648;2023-08-21T05:35:12;22.3;64.9
78463;SHT31;67756;51.982;5.648;2023-08-21T05:37:40;22.3;64.6
78463;SHT31;67756;51.982;5.648;2023-08-21T05:40:09;22.3;64.7
78463;SHT31;67756;51.982;5.648;2023-08-21T05:42:39;22.4;64.7
78463;SHT31;67756;51.982;5.648;2023-08-21T05:45:08;22.4;64.4
78463;SHT31;67756;51.982;5.648;2023-08-21T05:47:37;22.4;64.4
78463;SHT31;67756;51.982;5.648;2023-08-21T05:50:06;22.4;64.3
78463;SHT31;67756;51.982;5.648;2023-08-21T05:52:35;22.5;64.2
78463;SHT31;67756;51.982;5.648;2023-08-21T05:55:04;22.5;64.1
78463;SHT31;67756;51.982;5.648;2023-08-21T05:57:33;22.5;64.1
78463;SHT31;67756;51.982;5.648;2023-08-21T06:00:01;22.5;64.4
78463;SHT31;67756;51.982;5.648;2023-08-21T06:02:30;22.5;64.5
78463;SHT31;67756;51.982;5.648;2023-08-21T06:04:58;22.6;64.4
78463;SHT31;67756;51.982;5.648;2023-08-21T06:07:27;22.6;64.5
78463;SHT31;67756;51.982;5.648;2023-08-21T06:09:56;22.6;64.1
78463;SHT31;67756;51.982;5.648;2023-08-21T06:12:24;22.6;64.0
78463;SHT31;67756;51.982;5.648;2023-08-21T06:14:55;22.6;64.2
78463;SHT31;67756;51.982;5.648;2023-08-21T06:17:23;22.6;64.0
78463;SHT31;67756;51.982;5.648;2023-08-21T06:19:52;22.7;64.0
78463;SHT31;67756;51.982;5.648;2023-08-21T06:22:20;22.7;64.1
78463;SHT31;67756;51.982;5.648;2023-08-21T06:24:48;22.7;64.5
78463;SHT31;67756;51.982;5.648;2023-08-21T06:27:17;22.8;63.4
78463;SHT31;67756;51.982;5.648;2023-08-21T06:29:46;22.8;63.9
78463;SHT31;67756;51.982;5.648;2023-08-21T06:32:14;22.9;63.3
78463;SHT31;67756;51.982;5.648;2023-08-21T06:34:43;22.9;62.9
78463;SHT31;67756;51.982;5.648;2023-08-21T06:37:12;23.0;61.7
78463;SHT31;67756;51.982;5.648;2023-08-21T06:39:41;23.0;62.5
78463;SHT31;67756;51.982;5.648;2023-08-21T06:42:09;23.0;63.2
78463;SHT31;67756;51.982;5.648;2023-08-21T06:44:38;23.1;62.3
78463;SHT31;67756;51.982;5.648;2023-08-21T06:47:07;23.1;62.3
78463;SHT31;67756;51.982;5.648;2023-08-21T06:49:35;23.1;62.5
78463;SHT31;67756;51.982;5.648;2023-08-21T06:52:04;23.2;62.1
78463;SHT31;67756;51.982;5.648;2023-08-21T06:54:32;23.2;62.6
78463;SHT31;67756;51.982;5.648;2023-08-21T06:57:01;23.3;63.0
78463;SHT31;67756;51.982;5.648;2023-08-21T06:59:29;23.4;63.1
78463;SHT31;67756;51.982;5.648;2023-08-21T07:02:02;23.4;62.2
78463;SHT31;67756;51.982;5.648;2023-08-21T07:04:30;23.5;62.6
78463;SHT31;67756;51.982;5.648;2023-08-21T07:07:02;23.7;61.2
78463;SHT31;67756;51.982;5.648;2023-08-21T07:09:32;23.9;62.0
78463;SHT31;67756;51.982;5.648;2023-08-21T07:12:00;24.1;60.1
78463;SHT31;67756;51.982;5.648;2023-08-21T07:14:30;24.2;58.5
78463;SHT31;67756;51.982;5.648;2023-08-21T07:16:59;24.4;57.1
78463;SHT31;67756;51.982;5.648;2023-08-21T07:19:27;24.4;58.9
78463;SHT31;67756;51.982;5.648;2023-08-21T07:21:56;24.5;57.5
78463;SHT31;67756;51.982;5.648;2023-08-21T07:24:24;24.5;55.0
78463;SHT31;67756;51.982;5.648;2023-08-21T07:26:53;24.6;56.0
78463;SHT31;67756;51.982;5.648;2023-08-21T07:29:22;24.6;55.3
78463;SHT31;67756;51.982;5.648;2023-08-21T07:31:51;24.6;55.7
78463;SHT31;67756;51.982;5.648;2023-08-21T07:34:20;24.6;56.0
78463;SHT31;67756;51.982;5.648;2023-08-21T07:36:48;24.6;57.3
78463;SHT31;67756;51.982;5.648;2023-08-21T07:39:17;24.6;56.2
78463;SHT31;67756;51.982;5.648;2023-08-21T07:41:45;24.6;56.2
78463;SHT31;67756;51.982;5.648;2023-08-21T07:44:14;24.6;54.0
78463;SHT31;67756;51.982;5.648;2023-08-21T07:46:42;24.6;56.0
78463;SHT31;67756;51.982;5.648;2023-08-21T07:49:11;24.6;55.3
78463;SHT31;67756;51.982;5.648;2023-08-21T07:51:39;24.7;54.3
78463;SHT31;67756;51.982;5.648;2023-08-21T07:54:07;24.7;55.3
78463;SHT31;67756;51.982;5.648;2023-08-21T07:56:36;24.7;56.4
78463;SHT31;67756;51.982;5.648;2023-08-21T07:59:07;24.8;57.0
78463;SHT31;67756;51.982;5.648;2023-08-21T08:01:38;24.9;53.7
78463;SHT31;67756;51.982;5.648;2023-08-21T08:04:07;24.9;53.0
78463;SHT31;67756;51.982;5.648;2023-08-21T08:06:37;24.9;52.2
78463;SHT31;67756;51.982;5.648;2023-08-21T08:09:05;25.0;56.2
78463;SHT31;67756;51.982;5.648;2023-08-21T08:11:34;25.0;56.2
78463;SHT31;67756;51.982;5.648;2023-08-21T08:14:03;25.0;53.8
78463;SHT31;67756;51.982;5.648;2023-08-21T08:16:31;25.0;52.5
78463;SHT31;67756;51.982;5.648;2023-08-21T08:19:00;25.0;52.1
78463;SHT31;67756;51.982;5.648;2023-08-21T08:21:28;25.0;53.7
78463;SHT31;67756;51.982;5.648;2023-08-21T08:23:57;25.0;52.3
78463;SHT31;67756;51.982;5.648;2023-08-21T08:26:26;25.0;51.8
78463;SHT31;67756;51.982;5.648;2023-08-21T08:28:55;25.0;51.7
78463;SHT31;67756;51.982;5.648;2023-08-21T08:31:23;25.0;49.8
78463;SHT31;67756;51.982;5.648;2023-08-21T08:33:53;25.0;51.7
78463;SHT31;67756;51.982;5.648;2023-08-21T08:36:22;25.0;51.3
78463;SHT31;67756;51.982;5.648;2023-08-21T08:38:51;25.1;51.0
78463;SHT31;67756;51.982;5.648;2023-08-21T08:41:25;25.1;51.1
78463;SHT31;67756;51.982;5.648;2023-08-21T08:43:57;25.2;50.3
78463;SHT31;67756;51.982;5.648;2023-08-21T08:46:29;25.3;51.1
78463;SHT31;67756;51.982;5.648;2023-08-21T08:48:58;25.4;50.8
78463;SHT31;67756;51.982;5.648;2023-08-21T08:51:30;25.4;52.9
78463;SHT31;67756;51.982;5.648;2023-08-21T08:54:00;25.5;52.3
78463;SHT31;67756;51.982;5.648;2023-08-21T08:56:30;25.6;51.3
78463;SHT31;67756;51.982;5.648;2023-08-21T08:58:58;25.7;50.8
78463;SHT31;67756;51.982;5.648;2023-08-21T09:01:29;25.8;50.9
78463;SHT31;67756;51.982;5.648;2023-08-21T09:03:57;26.0;50.5
78463;SHT31;67756;51.982;5.648;2023-08-21T09:06:26;26.1;50.7
78463;SHT31;67756;51.982;5.648;2023-08-21T09:08:56;26.2;51.0
78463;SHT31;67756;51.982;5.648;2023-08-21T09:11:26;26.3;49.1
78463;SHT31;67756;51.982;5.648;2023-08-21T09:13:55;26.4;49.3
78463;SHT31;67756;51.982;5.648;2023-08-21T09:16:25;26.5;47.5
78463;SHT31;67756;51.982;5.648;2023-08-21T09:18:56;26.6;48.2
78463;SHT31;67756;51.982;5.648;2023-08-21T09:21:26;26.6;49.3
78463;SHT31;67756;51.982;5.648;2023-08-21T09:24:00;26.6;48.9
78463;SHT31;67756;51.982;5.648;2023-08-21T09:26:30;26.7;48.9
78463;SHT31;67756;51.982;5.648;2023-08-21T09:29:02;26.7;47.6
78463;SHT31;67756;51.982;5.648;2023-08-21T09:31:33;26.7;48.0
78463;SHT31;67756;51.982;5.648;2023-08-21T09:34:04;26.7;48.2
78463;SHT31;67756;51.982;5.648;2023-08-21T09:36:34;26.8;48.4
78463;SHT31;67756;51.982;5.648;2023-08-21T09:39:03;26.8;48.5
78463;SHT31;67756;51.982;5.648;2023-08-21T09:41:32;26.8;48.4
78463;SHT31;67756;51.982;5.648;2023-08-21T09:44:01;26.9;47.2
78463;SHT31;67756;51.982;5.648;2023-08-21T09:46:32;26.9;49.1
78463;SHT31;67756;51.982;5.648;2023-08-21T09:49:03;27.0;50.2
78463;SHT31;67756;51.982;5.648;2023-08-21T09:51:33;27.1;47.5
78463;SHT31;67756;51.982;5.648;2023-08-21T09:54:08;27.1;47.0
78463;SHT31;67756;51.982;5.648;2023-08-21T09:56:38;27.3;46.2
78463;SHT31;67756;51.982;5.648;2023-08-21T09:59:09;27.3;45.0
78463;SHT31;67756;51.982;5.648;2023-08-21T10:01:42;27.4;45.1
78463;SHT31;67756;51.982;5.648;2023-08-21T10:04:12;27.4;45.5
78463;SHT31;67756;51.982;5.648;2023-08-21T10:06:42;27.4;45.8
78463;SHT31;67756;51.982;5.648;2023-08-21T10:09:12;27.5;45.7
78463;SHT31;67756;51.982;5.648;2023-08-21T10:11:43;27.6;46.0
78463;SHT31;67756;51.982;5.648;2023-08-21T10:14:12;27.6;45.5
78463;SHT31;67756;51.982;5.648;2023-08-21T10:16:42;27.7;45.4
78463;SHT31;67756;51.982;5.648;2023-08-21T10:19:14;27.7;45.3
78463;SHT31;67756;51.982;5.648;2023-08-21T10:21:46;27.7;46.5
78463;SHT31;67756;51.982;5.648;2023-08-21T10:24:33;27.8;45.1
78463;SHT31;67756;51.982;5.648;2023-08-21T10:27:03;27.8;46.0
78463;SHT31;67756;51.982;5.648;2023-08-21T10:29:34;27.9;45.3
78463;SHT31;67756;51.982;5.648;2023-08-21T10:32:05;28.1;45.4
78463;SHT31;67756;51.982;5.648;2023-08-21T10:34:36;28.2;43.5
78463;SHT31;67756;51.982;5.648;2023-08-21T10:37:07;28.4;43.7
78463;SHT31;67756;51.982;5.648;2023-08-21T10:39:39;28.4;42.0
78463;SHT31;67756;51.982;5.648;2023-08-21T10:42:10;28.5;41.8
78463;SHT31;67756;51.982;5.648;2023-08-21T10:44:51;28.5;41.5
78463;SHT31;67756;51.982;5.648;2023-08-21T10:47:27;28.5;42.3
78463;SHT31;67756;51.982;5.648;2023-08-21T10:49:58;28.5;41.8
78463;SHT31;67756;51.982;5.648;2023-08-21T10:52:28;28.5;42.4
78463;SHT31;67756;51.982;5.648;2023-08-21T10:54:58;28.5;40.9
78463;SHT31;67756;51.982;5.648;2023-08-21T10:57:29;28.4;41.5
78463;SHT31;67756;51.982;5.648;2023-08-21T11:00:00;28.4;42.8
78463;SHT31;67756;51.982;5.648;2023-08-21T11:02:31;28.4;41.5
78463;SHT31;67756;51.982;5.648;2023-08-21T11:05:01;28.3;42.2
78463;SHT31;67756;51.982;5.648;2023-08-21T11:07:40;28.2;43.4
78463;SHT31;67756;51.982;5.648;2023-08-21T11:10:12;28.2;42.7
78463;SHT31;67756;51.982;5.648;2023-08-21T11:12:52;28.1;41.9
78463;SHT31;67756;51.982;5.648;2023-08-21T11:15:22;28.1;40.9
78463;SHT31;67756;51.982;5.648;2023-08-21T11:17:56;28.1;40.5
78463;SHT31;67756;51.982;5.648;2023-08-21T11:20:29;28.2;40.3
78463;SHT31;67756;51.982;5.648;2023-08-21T11:22:59;28.2;39.1
78463;SHT31;67756;51.982;5.648;2023-08-21T11:25:29;28.3;39.3
78463;SHT31;67756;51.982;5.648;2023-08-21T11:27:58;28.4;39.8
78463;SHT31;67756;51.982;5.648;2023-08-21T11:30:30;28.5;39.6
78463;SHT31;67756;51.982;5.648;2023-08-21T11:33:10;28.5;40.3
78463;SHT31;67756;51.982;5.648;2023-08-21T11:35:39;28.6;40.1
78463;SHT31;67756;51.982;5.648;2023-08-21T11:38:16;28.8;39.8
78463;SHT31;67756;51.982;5.648;2023-08-21T11:40:53;29.0;39.9
78463;SHT31;67756;51.982;5.648;2023-08-21T11:43:22;29.3;40.4
78463;SHT31;67756;51.982;5.648;2023-08-21T11:45:51;29.6;39.7
78463;SHT31;67756;51.982;5.648;2023-08-21T11:48:21;30.1;39.8
78463;SHT31;67756;51.982;5.648;2023-08-21T11:50:52;30.8;38.8
78463;SHT31;67756;51.982;5.648;2023-08-21T11:53:33;31.5;36.0
78463;SHT31;67756;51.982;5.648;2023-08-21T11:56:02;32.2;34.6
78463;SHT31;67756;51.982;5.648;2023-08-21T11:58:31;32.7;34.2
78463;SHT31;67756;51.982;5.648;2023-08-21T12:01:06;33.1;34.0
78463;SHT31;67756;51.982;5.648;2023-08-21T12:03:39;33.5;33.9
78463;SHT31;67756;51.982;5.648;2023-08-21T12:06:10;33.8;33.5
78463;SHT31;67756;51.982;5.648;2023-08-21T12:08:39;34.0;33.1
78463;SHT31;67756;51.982;5.648;2023-08-21T12:11:08;34.1;32.5
78463;SHT31;67756;51.982;5.648;2023-08-21T12:13:36;34.2;32.3
78463;SHT31;67756;51.982;5.648;2023-08-21T12:16:05;34.3;31.6
78463;SHT31;67756;51.982;5.648;2023-08-21T12:18:33;34.4;31.9
78463;SHT31;67756;51.982;5.648;2023-08-21T12:21:02;34.5;32.1
78463;SHT31;67756;51.982;5.648;2023-08-21T12:23:33;34.6;32.0
78463;SHT31;67756;51.982;5.648;2023-08-21T12:26:02;34.9;31.1
78463;SHT31;67756;51.982;5.648;2023-08-21T12:28:30;35.2;30.3
78463;SHT31;67756;51.982;5.648;2023-08-21T12:30:58;35.5;31.2
78463;SHT31;67756;51.982;5.648;2023-08-21T12:33:27;35.8;29.2
78463;SHT31;67756;51.982;5.648;2023-08-21T12:35:58;36.0;29.2
78463;SHT31;67756;51.982;5.648;2023-08-21T12:38:26;36.2;28.5
78463;SHT31;67756;51.982;5.648;2023-08-21T12:40:56;36.4;28.4
78463;SHT31;67756;51.982;5.648;2023-08-21T12:43:26;36.6;27.7
78463;SHT31;67756;51.982;5.648;2023-08-21T12:45:55;36.7;27.6
78463;SHT31;67756;51.982;5.648;2023-08-21T12:48:24;36.8;28.0
78463;SHT31;67756;51.982;5.648;2023-08-21T12:50:52;37.0;26.3
78463;SHT31;67756;51.982;5.648;2023-08-21T12:53:21;37.1;25.7
78463;SHT31;67756;51.982;5.648;2023-08-21T12:55:50;37.3;24.2
78463;SHT31;67756;51.982;5.648;2023-08-21T12:58:18;37.5;23.8
78463;SHT31;67756;51.982;5.648;2023-08-21T13:00:47;37.7;23.2
78463;SHT31;67756;51.982;5.648;2023-08-21T13:03:16;37.8;24.7
78463;SHT31;67756;51.982;5.648;2023-08-21T13:05:44;38.0;24.5
78463;SHT31;67756;51.982;5.648;2023-08-21T13:08:13;38.2;24.5
78463;SHT31;67756;51.982;5.648;2023-08-21T13:10:42;38.4;24.9
78463;SHT31;67756;51.982;5.648;2023-08-21T13:13:11;38.6;23.5
78463;SHT31;67756;51.982;5.648;2023-08-21T13:15:40;38.7;23.7
78463;SHT31;67756;51.982;5.648;2023-08-21T13:18:11;38.9;24.5
78463;SHT31;67756;51.982;5.648;2023-08-21T13:20:41;39.1;25.5
78463;SHT31;67756;51.982;5.648;2023-08-21T13:23:10;39.2;25.9
78463;SHT31;67756;51.982;5.648;2023-08-21T13:25:41;39.4;25.8
78463;SHT31;67756;51.982;5.648;2023-08-21T13:28:11;39.4;25.8
78463;SHT31;67756;51.982;5.648;2023-08-21T13:30:39;39.5;25.0
78463;SHT31;67756;51.982;5.648;2023-08-21T13:33:08;39.6;24.4
78463;SHT31;67756;51.982;5.648;2023-08-21T13:35:37;39.7;24.6
78463;SHT31;67756;51.982;5.648;2023-08-21T13:38:06;39.9;24.2
78463;SHT31;67756;51.982;5.648;2023-08-21T13:40:34;40.0;24.2
78463;SHT31;67756;51.982;5.648;2023-08-21T13:43:03;40.2;23.8
78463;SHT31;67756;51.982;5.648;2023-08-21T13:45:33;40.3;23.5
78463;SHT31;67756;51.982;5.648;2023-08-21T13:48:02;40.5;23.6
78463;SHT31;67756;51.982;5.648;2023-08-21T13:50:31;40.6;23.1
78463;SHT31;67756;51.982;5.648;2023-08-21T13:53:00;40.7;23.1
78463;SHT31;67756;51.982;5.648;2023-08-21T13:55:29;40.7;23.9
78463;SHT31;67756;51.982;5.648;2023-08-21T13:57:57;40.8;24.2
78463;SHT31;67756;51.982;5.648;2023-08-21T14:00:26;40.8;24.2
78463;SHT31;67756;51.982;5.648;2023-08-21T14:02:56;40.8;23.6
78463;SHT31;67756;51.982;5.648;2023-08-21T14:05:27;40.8;23.6
78463;SHT31;67756;51.982;5.648;2023-08-21T14:07:57;40.9;23.3
78463;SHT31;67756;51.982;5.648;2023-08-21T14:10:26;40.9;23.0
78463;SHT31;67756;51.982;5.648;2023-08-21T14:12:56;40.8;23.3
78463;SHT31;67756;51.982;5.648;2023-08-21T14:15:25;40.8;23.8
78463;SHT31;67756;51.982;5.648;2023-08-21T14:17:54;40.8;23.5
78463;SHT31;67756;51.982;5.648;2023-08-21T14:20:22;40.8;23.7
78463;SHT31;67756;51.982;5.648;2023-08-21T14:22:51;40.9;24.0
78463;SHT31;67756;51.982;5.648;2023-08-21T14:25:19;40.9;23.3
78463;SHT31;67756;51.982;5.648;2023-08-21T14:27:49;41.0;23.7
78463;SHT31;67756;51.982;5.648;2023-08-21T14:30:17;41.0;22.6
78463;SHT31;67756;51.982;5.648;2023-08-21T14:32:46;41.1;22.4
78463;SHT31;67756;51.982;5.648;2023-08-21T14:35:15;41.2;23.1
78463;SHT31;67756;51.982;5.648;2023-08-21T14:37:43;41.2;21.8
78463;SHT31;67756;51.982;5.648;2023-08-21T14:40:14;41.2;21.9
78463;SHT31;67756;51.982;5.648;2023-08-21T14:42:43;41.2;22.4
78463;SHT31;67756;51.982;5.648;2023-08-21T14:45:13;41.2;22.3
78463;SHT31;67756;51.982;5.648;2023-08-21T14:47:42;41.2;22.0
78463;SHT31;67756;51.982;5.648;2023-08-21T14:50:11;41.2;21.9
78463;SHT31;67756;51.982;5.648;2023-08-21T14:52:40;41.3;22.2
78463;SHT31;67756;51.982;5.648;2023-08-21T14:55:08;41.4;21.8
78463;SHT31;67756;51.982;5.648;2023-08-21T14:57:39;41.4;21.8
78463;SHT31;67756;51.982;5.648;2023-08-21T15:00:09;41.5;21.1
78463;SHT31;67756;51.982;5.648;2023-08-21T15:02:38;41.6;21.3
78463;SHT31;67756;51.982;5.648;2023-08-21T15:05:09;41.6;20.9
78463;SHT31;67756;51.982;5.648;2023-08-21T15:07:39;41.6;21.1
78463;SHT31;67756;51.982;5.648;2023-08-21T15:10:09;41.6;21.0
78463;SHT31;67756;51.982;5.648;2023-08-21T15:12:37;41.6;21.5
78463;SHT31;67756;51.982;5.648;2023-08-21T15:15:07;41.7;21.2
78463;SHT31;67756;51.982;5.648;2023-08-21T15:17:36;41.7;21.2
78463;SHT31;67756;51.982;5.648;2023-08-21T15:20:05;41.7;21.3
78463;SHT31;67756;51.982;5.648;2023-08-21T15:22:35;41.8;20.7
78463;SHT31;67756;51.982;5.648;2023-08-21T15:25:04;41.7;20.8
78463;SHT31;67756;51.982;5.648;2023-08-21T15:27:33;41.7;21.4
78463;SHT31;67756;51.982;5.648;2023-08-21T15:30:02;41.7;21.4
78463;SHT31;67756;51.982;5.648;2023-08-21T15:32:31;41.7;21.0
78463;SHT31;67756;51.982;5.648;2023-08-21T15:34:59;41.7;21.0
78463;SHT31;67756;51.982;5.648;2023-08-21T15:37:30;41.7;21.4
78463;SHT31;67756;51.982;5.648;2023-08-21T15:39:59;41.8;22.1
78463;SHT31;67756;51.982;5.648;2023-08-21T15:42:28;41.8;21.5
78463;SHT31;67756;51.982;5.648;2023-08-21T15:44:58;41.7;21.0
78463;SHT31;67756;51.982;5.648;2023-08-21T15:47:26;41.3;22.0
78463;SHT31;67756;51.982;5.648;2023-08-21T15:49:55;40.7;22.7
78463;SHT31;67756;51.982;5.648;2023-08-21T15:52:24;40.0;23.0
78463;SHT31;67756;51.982;5.648;2023-08-21T15:54:52;39.4;23.9
78463;SHT31;67756;51.982;5.648;2023-08-21T15:57:21;38.9;24.7
78463;SHT31;67756;51.982;5.648;2023-08-21T15:59:50;38.3;24.2
78463;SHT31;67756;51.982;5.648;2023-08-21T16:02:20;38.0;23.5
78463;SHT31;67756;51.982;5.648;2023-08-21T16:04:49;37.7;24.7
78463;SHT31;67756;51.982;5.648;2023-08-21T16:07:17;37.3;25.5
78463;SHT31;67756;51.982;5.648;2023-08-21T16:09:46;37.0;26.1
78463;SHT31;67756;51.982;5.648;2023-08-21T16:12:15;36.7;26.5
78463;SHT31;67756;51.982;5.648;2023-08-21T16:14:43;36.4;27.0
78463;SHT31;67756;51.982;5.648;2023-08-21T16:17:11;36.2;27.7